Webcam

2018/07/17 17:20 EBBR 171720Z 31010KT 280V340 CAVOK 23/09 Q1017 NOSIG

Webcam

--- Refresh now ---